Details From KPNS - Pensacola Rgnl
To MZBZ - Philip S W Goldson Intl
Flight Number -
Tags decoded
Created
Modified
Stats Distance 848 nm / 1,571 km
Max Altitude 0 ft / 0 m
Waypoints 8
Social Downloads 0
Likes 0
Share VATSIM

Download

Looking for another format? Having issues loading an existing format? Contact us
Advertisement - Login to hide

Notes

Requested: KPNS HOOCK L333 PISAD UM215 NUDIS UL214 CUN B881 LIDEK UB881 CZM B764 DAXUM UB764 ANEPU B764 TAMDA MZBZ Unmatched points: L333 UM215 UL214 B881 LIDEK UB881 B764 DAXUM UB764 ANEPU B764

Route

KPNS HOOCK PISAD NUDIS CUN CZM TAMDA MZBZ

ID Type Via Altitude Latitude Longitude Leg Dist Tot Dist Heading (true) Name
O KPNS APT - 0 ft / 0 m 30.47343˚ -87.18661˚ - 0 nm - Pensacola Rgnl
HOOCK FIX - 0 ft / 0 m 28.22906˚ -88.66727˚ 155 nm 155 nm 210° / 210° -
PISAD FIX - 0 ft / 0 m 24.28861˚ -87.14028˚ 250 nm 406 nm 160° / 161° -
NUDIS FIX - 0 ft / 0 m 23.44444˚ -87.78889˚ 61 nm 467 nm 215° / 215° -
CUN VOR - 0 ft / 0 m 21.02511˚ -86.85872˚ 154 nm 622 nm 160° / 161° CANCUN VOR-DME
CZM NDB - 0 ft / 0 m 20.52195˚ -86.93393˚ 30 nm 652 nm 188° / 188° COZUMEL NDB
TAMDA FIX - 0 ft / 0 m 17.92000˚ -88.14000˚ 170 nm 823 nm 204° / 203° -
O MZBZ APT - 0 ft / 0 m 17.53914˚ -88.30820˚ 24 nm 848 nm 203° / 203° Philip S W Goldson Intl

Altitude Profile

Weather

Temperature
Clouds and Precipitation
Forecast for 2017-01-24 18:00 UTC. Updated 2 hours ago
Winds

KPNS

Details ICAO KPNS (PNS)
Name Pensacola Rgnl
Region United States
Timezone America/Chicago (UTC-6.0)
Stats Elevation 121 ft / 37 m (AMSL)
Location 30.473426° -87.186612°
Runways 2
Magnetic Variation 2.725° W

METAR

KPNS 241853Z VRB04KT 10SM CLR 19/05 A2990

Decode

TAF

TAF KPNS 241732Z 2418/2518 33006KT P6SM SKC FM242100 22006KT P6SM SKC FM251300 20009KT P6SM SCT250

Decode

Departure Runways

ID Width Length Bearing (true) Bearing (mag) Surface Threshold Offset Overrun Length
08 150 ft / 46 m 6,991 ft / 2,131 m 78.00° 80.73° Asphalt 0 ft / 0 m 0 ft / 0 m
17 150 ft / 46 m 7,025 ft / 2,141 m 167.05° 169.78° Asphalt 0 ft / 0 m 0 ft / 0 m
26 150 ft / 46 m 6,991 ft / 2,131 m 258.01° 260.74° Asphalt 0 ft / 0 m 0 ft / 0 m
35 150 ft / 46 m 7,025 ft / 2,141 m 347.05° 349.78° Asphalt 0 ft / 0 m 0 ft / 0 m

MZBZ

Details ICAO MZBZ (BZE)
Name Philip S W Goldson Intl
Region Belize
Timezone America/Belize (UTC-6.0)
Stats Elevation 15 ft / 5 m (AMSL)
Location 17.539144° -88.308201°
Runways 1
Magnetic Variation 0.437° W

METAR

MZBZ 241900Z 06006KT CAVOK 25/18 A2995 Q1015 NOSIG

Decode

TAF

Not found

Destination Runways

ID Width Length Bearing (true) Bearing (mag) Surface Threshold Offset Overrun Length
07 150 ft / 46 m 7,097 ft / 2,163 m 76.65° 77.09° Asphalt 0 ft / 0 m 200 ft / 61 m
25 150 ft / 46 m 7,097 ft / 2,163 m 256.66° 257.10° Asphalt 0 ft / 0 m 200 ft / 61 m

Popular Alternatives